createdAt,value
2023-10-26T00:02:18.342Z,98952.31
2023-10-26T00:04:45.214Z,98956.95
2023-10-26T00:07:11.968Z,98951.91
2023-10-26T00:09:38.549Z,98951.11
2023-10-26T00:12:05.880Z,98949.56
2023-10-26T00:14:34.667Z,98945.52
2023-10-26T00:17:01.229Z,98942.54
2023-10-26T00:19:28.017Z,98942.01
2023-10-26T00:21:54.559Z,98944.68
2023-10-26T00:24:21.120Z,98945.38
2023-10-26T00:26:48.030Z,98943.48
2023-10-26T00:29:14.570Z,98943.03
2023-10-26T00:31:41.208Z,98940.64
2023-10-26T00:34:08.296Z,98934.40
2023-10-26T00:36:34.833Z,98937.05
2023-10-26T00:39:01.329Z,98932.98
2023-10-26T00:41:28.732Z,98933.98
2023-10-26T00:43:55.208Z,98933.61
2023-10-26T00:46:22.062Z,98929.80
2023-10-26T00:48:48.778Z,98929.77
2023-10-26T00:51:15.599Z,98931.30
2023-10-26T00:53:42.288Z,98933.14
2023-10-26T00:56:09.695Z,98923.52
2023-10-26T00:58:36.152Z,98921.79
2023-10-26T01:01:02.641Z,98914.59
2023-10-26T01:03:30.230Z,98911.79
2023-10-26T01:05:56.750Z,98906.79
2023-10-26T01:08:24.593Z,98903.04
2023-10-26T01:10:52.301Z,98896.04
2023-10-26T01:13:19.390Z,98893.52
2023-10-26T01:15:45.902Z,98888.80
2023-10-26T01:18:13.194Z,98881.20
2023-10-26T01:20:45.308Z,98882.19
2023-10-26T01:23:13.424Z,98887.48
2023-10-26T01:25:41.164Z,98885.28
2023-10-26T01:28:11.154Z,98887.79
2023-10-26T01:30:41.692Z,98888.04
2023-10-26T01:33:08.278Z,98895.16
2023-10-26T01:35:42.254Z,98901.88
2023-10-26T01:38:08.909Z,98900.67
2023-10-26T01:40:35.372Z,98898.56
2023-10-26T01:43:03.388Z,98894.55
2023-10-26T01:45:30.009Z,98894.69
2023-10-26T01:47:56.916Z,98892.45
2023-10-26T01:50:23.796Z,98894.67
2023-10-26T01:52:50.411Z,98897.11
2023-10-26T01:55:17.451Z,98894.45
2023-10-26T01:57:44.520Z,98892.13
2023-10-26T02:00:12.062Z,98891.73
2023-10-26T02:02:42.293Z,98891.78
2023-10-26T02:05:09.281Z,98889.95
2023-10-26T02:07:37.004Z,98895.69
2023-10-26T02:10:03.747Z,98891.45
2023-10-26T02:12:31.320Z,98889.16
2023-10-26T02:14:57.904Z,98885.66
2023-10-26T02:17:24.446Z,98888.70
2023-10-26T02:19:52.858Z,98883.63
2023-10-26T02:22:19.515Z,98879.27
2023-10-26T02:24:46.435Z,98877.71
2023-10-26T02:27:13.300Z,98877.90
2023-10-26T02:29:39.812Z,98877.14
2023-10-26T02:32:07.670Z,98871.71
2023-10-26T02:34:34.297Z,98872.80
2023-10-26T02:37:02.636Z,98872.31
2023-10-26T02:39:29.568Z,98870.07
2023-10-26T02:41:56.167Z,98873.03
2023-10-26T02:44:22.669Z,98872.96
2023-10-26T02:46:49.236Z,98878.63
2023-10-26T02:49:18.288Z,98874.94
2023-10-26T02:51:44.971Z,98878.40
2023-10-26T02:54:11.705Z,98873.81
2023-10-26T02:56:38.340Z,98876.95
2023-10-26T02:59:05.069Z,98878.68
2023-10-26T03:01:35.456Z,98879.97
2023-10-26T03:04:06.332Z,98872.55
2023-10-26T03:06:39.715Z,98867.50
2023-10-26T03:09:06.669Z,98862.92
2023-10-26T03:11:33.349Z,98861.72
2023-10-26T03:14:02.787Z,98859.11
2023-10-26T03:16:30.585Z,98855.06
2023-10-26T03:18:59.655Z,98854.98
2023-10-26T03:21:26.801Z,98848.52
2023-10-26T03:23:53.695Z,98851.97
2023-10-26T03:26:22.984Z,98852.48
2023-10-26T03:28:50.549Z,98854.29
2023-10-26T03:31:20.280Z,98855.29
2023-10-26T03:33:46.856Z,98856.82
2023-10-26T03:36:16.935Z,98860.44
2023-10-26T03:38:44.486Z,98856.33
2023-10-26T03:41:12.870Z,98855.75
2023-10-26T03:43:40.275Z,98854.88
2023-10-26T03:46:07.018Z,98852.36
2023-10-26T03:48:35.097Z,98850.15
2023-10-26T03:51:02.349Z,98845.70
2023-10-26T03:53:29.167Z,98841.83
2023-10-26T03:55:55.928Z,98838.61
2023-10-26T03:58:23.090Z,98836.73
2023-10-26T04:00:52.188Z,98837.48
2023-10-26T04:03:18.863Z,98838.94
2023-10-26T04:05:45.540Z,98843.45
2023-10-26T04:08:13.238Z,98845.96
2023-10-26T04:10:41.772Z,98851.08
2023-10-26T04:13:08.313Z,98852.25
2023-10-26T04:15:34.920Z,98848.36
2023-10-26T04:18:05.049Z,98845.70
2023-10-26T04:20:31.616Z,98844.86
2023-10-26T04:22:58.309Z,98841.61
2023-10-26T04:25:42.190Z,98843.73
2023-10-26T04:28:16.616Z,98842.55
2023-10-26T04:31:06.778Z,98844.41
2023-10-26T04:33:33.830Z,98847.80
2023-10-26T04:36:01.658Z,98847.50
2023-10-26T04:38:28.232Z,98845.64
2023-10-26T04:40:55.288Z,98843.86
2023-10-26T04:43:21.882Z,98847.33
2023-10-26T04:45:49.338Z,98848.96
2023-10-26T04:48:16.102Z,98848.42
2023-10-26T04:50:42.867Z,98848.15
2023-10-26T04:53:11.787Z,98845.83
2023-10-26T04:55:39.832Z,98842.11
2023-10-26T04:58:06.444Z,98843.66
2023-10-26T05:00:32.940Z,98840.85
2023-10-26T05:03:01.451Z,98841.55
2023-10-26T05:05:28.254Z,98843.81
2023-10-26T05:07:55.323Z,98841.17
2023-10-26T05:10:22.206Z,98842.41
2023-10-26T05:12:50.078Z,98837.09
2023-10-26T05:15:16.983Z,98835.27
2023-10-26T05:17:46.136Z,98840.73
2023-10-26T05:20:12.788Z,98844.51
2023-10-26T05:22:40.722Z,98849.95
2023-10-26T05:25:11.042Z,98853.44
2023-10-26T05:27:37.814Z,98848.34
2023-10-26T05:30:05.952Z,98847.21
2023-10-26T05:32:33.356Z,98851.12
2023-10-26T05:35:04.652Z,98848.81
2023-10-26T05:37:31.590Z,98850.84
2023-10-26T05:39:58.211Z,98855.81
2023-10-26T05:42:24.820Z,98858.90
2023-10-26T05:44:51.638Z,98861.23
2023-10-26T05:47:21.982Z,98866.85
2023-10-26T05:49:48.906Z,98869.40
2023-10-26T05:52:16.083Z,98872.63
2023-10-26T05:54:43.367Z,98871.39
2023-10-26T05:57:11.189Z,98876.38
2023-10-26T05:59:38.648Z,98874.64
2023-10-26T06:02:05.238Z,98879.50
2023-10-26T06:04:32.343Z,98886.83
2023-10-26T06:06:59.028Z,98886.98
2023-10-26T06:09:25.750Z,98891.20
2023-10-26T06:11:52.678Z,98893.44
2023-10-26T06:14:19.294Z,98892.03
2023-10-26T06:16:48.021Z,98886.55
2023-10-26T06:19:15.347Z,98891.16
2023-10-26T06:21:42.704Z,98890.72
2023-10-26T06:24:10.321Z,98891.42
2023-10-26T06:26:36.754Z,98893.71
2023-10-26T06:29:03.503Z,98892.55
2023-10-26T06:31:30.414Z,98895.02
2023-10-26T06:33:57.110Z,98894.30
2023-10-26T06:36:24.428Z,98901.14
2023-10-26T06:38:55.263Z,98902.23
2023-10-26T06:41:21.815Z,98904.04
2023-10-26T06:55:44.405Z,98898.02
2023-10-26T06:58:11.997Z,98906.46
2023-10-26T07:00:39.216Z,98900.80
2023-10-26T07:03:06.700Z,98900.78
2023-10-26T07:05:34.966Z,98898.52
2023-10-26T07:08:02.992Z,98900.29
2023-10-26T07:10:32.900Z,98899.63
2023-10-26T07:13:00.849Z,98902.46
2023-10-26T07:15:28.312Z,98908.25
2023-10-26T07:17:56.456Z,98915.56
2023-10-26T07:20:23.797Z,98910.77
2023-10-26T07:22:51.030Z,98907.22
2023-10-26T07:25:18.384Z,98906.59
2023-10-26T07:27:45.565Z,98905.39
2023-10-26T07:30:13.637Z,98908.06
2023-10-26T07:32:41.063Z,98914.71
2023-10-26T07:35:08.789Z,98916.16
2023-10-26T07:37:36.352Z,98914.83
2023-10-26T07:40:28.094Z,98920.75
2023-10-26T07:42:51.171Z,98924.77
2023-10-26T07:45:19.702Z,98925.84
2023-10-26T07:47:48.047Z,98927.52
2023-10-26T07:50:18.856Z,98932.73
2023-10-26T07:52:46.080Z,98930.91
2023-10-26T07:55:13.782Z,98929.30
2023-10-26T07:57:43.603Z,98931.20
2023-10-26T08:00:13.158Z,98928.55
2023-10-26T08:02:41.435Z,98926.36
2023-10-26T08:05:11.086Z,98925.66
2023-10-26T08:07:38.936Z,98922.52
2023-10-26T08:10:07.034Z,98922.70
2023-10-26T08:12:34.250Z,98916.50
2023-10-26T08:16:11.227Z,98917.05
2023-10-26T08:17:51.763Z,98913.02
2023-10-26T08:20:19.267Z,98920.33
2023-10-26T08:22:46.505Z,98924.22
2023-10-26T08:25:15.405Z,98928.69
2023-10-26T08:27:45.600Z,98931.92
2023-10-26T08:30:13.378Z,98930.55
2023-10-26T08:32:40.856Z,98929.98
2023-10-26T08:35:09.164Z,98926.67
2023-10-26T08:37:36.417Z,98928.20
2023-10-26T08:40:04.509Z,98927.54
2023-10-26T08:42:32.204Z,98923.03
2023-10-26T08:44:59.451Z,98922.00
2023-10-26T08:47:26.929Z,98926.95
2023-10-26T08:50:08.327Z,98930.66
2023-10-26T08:52:44.565Z,98932.80
2023-10-26T08:55:11.848Z,98935.70
2023-10-26T08:57:49.677Z,98934.77
2023-10-26T09:00:17.912Z,98934.81
2023-10-26T09:02:50.020Z,98934.23
2023-10-26T09:05:17.657Z,98929.64
2023-10-26T09:07:45.414Z,98934.89
2023-10-26T09:10:12.928Z,98941.14
2023-10-26T09:12:40.285Z,98941.52
2023-10-26T09:15:08.432Z,98940.65
2023-10-26T09:17:36.206Z,98934.04
2023-10-26T09:20:22.282Z,98937.58
2023-10-26T09:22:49.853Z,98938.98
2023-10-26T09:25:17.392Z,98941.59
2023-10-26T09:27:45.934Z,98949.92
2023-10-26T09:30:29.860Z,98945.30
2023-10-26T09:33:00.638Z,98942.48
2023-10-26T09:35:32.493Z,98945.79
2023-10-26T09:38:00.478Z,98952.73
2023-10-26T09:40:28.703Z,98958.60
2023-10-26T09:42:59.471Z,98963.24
2023-10-26T09:45:28.678Z,98957.57
2023-10-26T09:47:56.219Z,98953.05
2023-10-26T09:50:23.577Z,98957.52
2023-10-26T09:52:52.422Z,98957.71
2023-10-26T09:55:19.756Z,98958.17
2023-10-26T09:57:53.515Z,98962.31
2023-10-26T10:00:21.416Z,98966.52
2023-10-26T10:03:11.675Z,98967.42
2023-10-26T10:05:40.236Z,98967.26
2023-10-26T10:08:07.847Z,98961.46
2023-10-26T10:10:35.473Z,98963.08
2023-10-26T10:13:03.046Z,98965.89
2023-10-26T10:15:48.193Z,98966.02
2023-10-26T10:18:16.055Z,98963.33
2023-10-26T10:20:43.553Z,98958.59
2023-10-26T10:23:12.364Z,98956.02
2023-10-26T10:25:52.648Z,98951.94
2023-10-26T10:28:21.435Z,98951.31
2023-10-26T10:30:57.347Z,98958.07
2023-10-26T10:33:27.564Z,98963.92
2023-10-26T10:36:20.841Z,98961.06
2023-10-26T10:38:50.613Z,98958.55
2023-10-26T10:41:18.050Z,98956.09
2023-10-26T10:43:51.420Z,98953.80
2023-10-26T10:46:29.800Z,98960.38
2023-10-26T10:49:02.687Z,98960.19
2023-10-26T10:51:33.016Z,98956.67
2023-10-26T10:54:11.235Z,98953.56
2023-10-26T10:56:49.928Z,98949.15
2023-10-26T10:59:23.154Z,98944.10
2023-10-26T11:02:13.798Z,98948.00
2023-10-26T11:07:31.844Z,98948.39
2023-10-26T11:10:00.628Z,98943.73
2023-10-26T11:12:31.419Z,98938.31
2023-10-26T11:14:59.593Z,98928.14
2023-10-26T11:17:28.299Z,98932.01
2023-10-26T11:19:56.158Z,98931.54
2023-10-26T11:22:23.512Z,98926.65
2023-10-26T11:24:50.993Z,98933.05
2023-10-26T11:27:19.672Z,98933.42
2023-10-26T11:30:28.733Z,98931.09
2023-10-26T11:32:56.136Z,98931.34
2023-10-26T11:35:24.767Z,98933.65
2023-10-26T11:37:57.416Z,98930.55
2023-10-26T11:40:54.409Z,98936.52
2023-10-26T11:43:38.002Z,98934.91
2023-10-26T11:46:05.593Z,98925.89
2023-10-26T11:48:34.080Z,98935.89
2023-10-26T11:51:01.604Z,98933.55
2023-10-26T11:53:28.937Z,98939.05
2023-10-26T11:55:56.225Z,98935.13
2023-10-26T11:58:23.632Z,98935.08
2023-10-26T12:00:50.940Z,98939.48
2023-10-26T12:03:18.192Z,98931.77
2023-10-26T12:05:45.572Z,98931.05
2023-10-26T12:08:13.155Z,98929.48
2023-10-26T12:10:41.662Z,98926.52
2023-10-26T12:13:09.078Z,98925.77
2023-10-26T12:15:37.700Z,98923.58
2023-10-26T12:18:05.221Z,98925.30
2023-10-26T12:20:32.826Z,98925.84
2023-10-26T12:23:00.139Z,98926.84
2023-10-26T12:25:27.374Z,98924.52
2023-10-26T12:28:21.025Z,98922.30
2023-10-26T12:30:42.117Z,98920.23
2023-10-26T12:33:10.646Z,98921.10
2023-10-26T12:35:37.907Z,98924.36
2023-10-26T12:38:05.084Z,98924.04
2023-10-26T12:40:33.158Z,98925.43
2023-10-26T12:43:00.419Z,98928.84
2023-10-26T12:45:27.739Z,98936.11
2023-10-26T12:47:55.151Z,98935.53
2023-10-26T12:50:22.379Z,98933.35
2023-10-26T12:52:49.567Z,98934.71
2023-10-26T12:55:16.940Z,98941.77
2023-10-26T12:57:45.076Z,98942.31
2023-10-26T13:00:13.298Z,98941.71
2023-10-26T13:02:40.528Z,98939.56
2023-10-26T13:05:08.057Z,98942.95
2023-10-26T13:07:35.629Z,98940.98
2023-10-26T13:10:04.546Z,98943.16
2023-10-26T13:12:32.203Z,98941.40
2023-10-26T13:15:04.695Z,98940.52
2023-10-26T13:17:33.623Z,98941.17
2023-10-26T13:20:01.327Z,98942.77
2023-10-26T13:22:28.474Z,98939.98
2023-10-26T13:24:55.839Z,98943.41
2023-10-26T13:27:23.521Z,98942.90
2023-10-26T13:29:50.819Z,98941.26
2023-10-26T13:32:18.149Z,98941.18
2023-10-26T13:34:45.558Z,98939.36
2023-10-26T13:37:13.230Z,98944.84
2023-10-26T13:39:40.574Z,98941.95
2023-10-26T13:42:07.982Z,98943.46
2023-10-26T13:44:35.351Z,98945.45
2023-10-26T13:47:02.674Z,98944.00
2023-10-26T13:49:29.928Z,98947.83
2023-10-26T13:51:57.160Z,98943.93
2023-10-26T13:54:25.472Z,98942.10
2023-10-26T13:56:54.363Z,98936.23
2023-10-26T13:59:21.815Z,98922.54
2023-10-26T14:01:50.838Z,98918.84
2023-10-26T14:04:18.202Z,98915.75
2023-10-26T14:06:45.420Z,98911.95
2023-10-26T14:09:12.783Z,98910.45
2023-10-26T14:11:39.930Z,98904.94
2023-10-26T14:14:07.202Z,98898.52
2023-10-26T14:16:35.271Z,98892.59
2023-10-26T14:19:05.451Z,98898.69
2023-10-26T14:21:32.739Z,98903.00
2023-10-26T14:24:00.039Z,98910.67
2023-10-26T14:26:27.315Z,98914.37
2023-10-26T14:28:54.839Z,98916.02
2023-10-26T14:31:23.624Z,98917.86
2023-10-26T14:33:52.579Z,98926.73
2023-10-26T14:36:20.623Z,98930.86
2023-10-26T14:38:50.809Z,98930.98
2023-10-26T14:41:18.165Z,98934.81
2023-10-26T14:43:45.375Z,98932.36
2023-10-26T14:46:12.574Z,98929.95
2023-10-26T14:48:39.966Z,98937.48
2023-10-26T14:51:07.211Z,98939.61
2023-10-26T14:53:36.827Z,98936.40
2023-10-26T14:56:05.665Z,98930.78
2023-10-26T14:58:32.957Z,98934.93
2023-10-26T15:01:00.417Z,98942.31
2023-10-26T15:03:27.956Z,98941.66
2023-10-26T15:05:55.180Z,98941.80
2023-10-26T15:08:22.499Z,98945.56
2023-10-26T15:10:51.669Z,98943.75
2023-10-26T15:13:20.254Z,98938.38
2023-10-26T15:15:49.049Z,98932.98
2023-10-26T15:18:16.332Z,98933.65
2023-10-26T15:20:43.574Z,98937.45
2023-10-26T15:23:11.820Z,98945.48
2023-10-26T15:25:39.130Z,98947.25
2023-10-26T15:28:06.524Z,98942.65
2023-10-26T15:30:34.274Z,98939.45
2023-10-26T15:33:01.829Z,98944.04
2023-10-26T15:35:29.437Z,98954.05
2023-10-26T15:37:56.841Z,98958.92
2023-10-26T15:40:25.378Z,98958.19
2023-10-26T15:42:53.643Z,98960.04
2023-10-26T15:45:49.659Z,98964.20
2023-10-26T15:48:19.337Z,98960.95
2023-10-26T15:51:07.235Z,98964.66
2023-10-26T15:53:34.621Z,98962.30
2023-10-26T15:56:15.084Z,98955.27
2023-10-26T15:58:42.476Z,98952.07
2023-10-26T16:01:12.540Z,98952.29
2023-10-26T16:04:03.165Z,98946.21
2023-10-26T16:06:34.116Z,98942.77
2023-10-26T16:09:04.027Z,98937.38
2023-10-26T16:11:32.432Z,98939.34
2023-10-26T16:14:04.595Z,98941.82
2023-10-26T16:16:31.918Z,98945.24
2023-10-26T16:18:59.614Z,98951.55
2023-10-26T16:21:47.818Z,98956.85
2023-10-26T16:24:15.047Z,98961.88
2023-10-26T16:26:42.852Z,98965.11
2023-10-26T16:29:10.328Z,98966.09
2023-10-26T16:31:38.741Z,98967.61
2023-10-26T16:34:28.265Z,98966.98
2023-10-26T16:36:57.414Z,98966.22
2023-10-26T16:39:25.160Z,98970.02
2023-10-26T16:41:52.982Z,98961.82
2023-10-26T16:44:22.319Z,98955.17
2023-10-26T16:47:09.864Z,98957.02
2023-10-26T16:49:39.870Z,98954.01
2023-10-26T16:52:07.463Z,98954.12
2023-10-26T16:54:34.807Z,98944.08
2023-10-26T16:57:08.924Z,98946.44
2023-10-26T16:59:39.562Z,98949.88
2023-10-26T17:02:06.982Z,98944.83
2023-10-26T17:04:36.630Z,98934.21
2023-10-26T17:07:05.253Z,98926.45
2023-10-26T17:09:32.756Z,98926.14
2023-10-26T17:12:01.771Z,98925.39
2023-10-26T17:14:28.964Z,98919.39
2023-10-26T17:16:58.669Z,98919.80
2023-10-26T17:19:26.275Z,98920.90
2023-10-26T17:21:55.818Z,98916.16
2023-10-26T17:24:23.053Z,98911.23
2023-10-26T17:26:51.285Z,98905.66
2023-10-26T17:29:19.332Z,98894.33
2023-10-26T17:31:47.277Z,98896.51
2023-10-26T17:34:16.031Z,98897.77
2023-10-26T17:36:56.496Z,98895.16
2023-10-26T17:39:26.286Z,98896.47
2023-10-26T17:41:56.857Z,98895.89
2023-10-26T17:44:26.950Z,98903.20
2023-10-26T17:46:54.549Z,98901.54
2023-10-26T17:49:22.623Z,98900.30
2023-10-26T17:51:52.542Z,98897.08
2023-10-26T17:54:23.714Z,98894.80
2023-10-26T17:56:51.130Z,98894.17
2023-10-26T17:59:22.746Z,98897.04
2023-10-26T18:01:50.228Z,98892.91
2023-10-26T18:04:18.870Z,98896.10
2023-10-26T18:06:46.186Z,98891.52
2023-10-26T18:09:14.552Z,98892.02
2023-10-26T18:11:44.652Z,98887.80
2023-10-26T18:14:14.049Z,98890.59
2023-10-26T18:16:44.631Z,98893.63
2023-10-26T18:19:12.467Z,98893.09
2023-10-26T18:21:39.721Z,98890.86
2023-10-26T18:24:08.026Z,98885.30
2023-10-26T18:26:35.301Z,98886.69
2023-10-26T18:29:13.332Z,98885.13
2023-10-26T18:31:43.407Z,98878.86
2023-10-26T18:34:14.399Z,98873.02
2023-10-26T18:36:42.727Z,98872.38
2023-10-26T18:39:11.808Z,98880.52
2023-10-26T18:41:41.468Z,98884.16
2023-10-26T18:44:17.305Z,98882.89
2023-10-26T18:46:44.544Z,98891.77
2023-10-26T18:49:36.814Z,98894.44
2023-10-26T18:52:07.738Z,98901.26
2023-10-26T18:54:43.343Z,98886.02
2023-10-26T18:57:13.447Z,98879.02
2023-10-26T19:00:01.480Z,98872.41
2023-10-26T19:02:29.177Z,98864.44
2023-10-26T19:04:58.376Z,98860.85
2023-10-26T19:07:29.369Z,98869.64
2023-10-26T19:10:17.358Z,98876.79
2023-10-26T19:12:49.667Z,98882.41
2023-10-26T19:15:19.336Z,98886.70
2023-10-26T19:17:52.555Z,98886.98
2023-10-26T19:20:20.724Z,98885.74
2023-10-26T19:23:14.896Z,98879.73
2023-10-26T19:25:44.755Z,98873.21
2023-10-26T19:28:12.046Z,98874.08
2023-10-26T19:30:42.010Z,98868.20
2023-10-26T19:33:30.958Z,98859.96
2023-10-26T19:36:00.217Z,98861.78
2023-10-26T19:38:29.778Z,98873.84
2023-10-26T19:40:59.894Z,98868.77
2023-10-26T19:43:31.145Z,98865.14
2023-10-26T19:46:00.073Z,98866.08
2023-10-26T19:48:27.685Z,98863.04
2023-10-26T19:50:54.888Z,98859.24
2023-10-26T19:53:34.914Z,98852.77
2023-10-26T19:56:02.223Z,98851.27
2023-10-26T19:58:29.734Z,98912.70
2023-10-26T20:00:59.290Z,98914.45
2023-10-26T20:03:26.675Z,98906.66
2023-10-26T20:05:56.515Z,98938.68
2023-10-26T20:08:27.062Z,98913.98
2023-10-26T20:10:57.836Z,98889.33
2023-10-26T20:13:27.521Z,98890.36
2023-10-26T20:15:55.764Z,98891.86
2023-10-26T20:18:23.850Z,98870.91
2023-10-26T20:20:51.080Z,98855.90
2023-10-26T20:23:21.016Z,98859.16
2023-10-26T20:25:51.056Z,98858.38
2023-10-26T20:28:21.002Z,98861.23
2023-10-26T20:30:49.301Z,98858.64
2023-10-26T20:33:18.445Z,98846.39
2023-10-26T20:35:52.502Z,98847.41
2023-10-26T20:38:21.134Z,98845.25
2023-10-26T20:40:49.296Z,98843.80
2023-10-26T20:43:16.723Z,98843.10
2023-10-26T20:45:44.037Z,98840.05
2023-10-26T20:48:14.125Z,98836.45
2023-10-26T20:50:43.008Z,98832.36
2023-10-26T20:53:10.355Z,98830.84
2023-10-26T20:55:37.418Z,98832.88
2023-10-26T20:58:06.961Z,98827.36
2023-10-26T21:00:35.090Z,98823.25
2023-10-26T21:03:05.453Z,98815.86
2023-10-26T21:05:32.952Z,98819.31
2023-10-26T21:08:00.162Z,98815.89
2023-10-26T21:10:30.217Z,98807.83
2023-10-26T21:12:57.588Z,98809.71
2023-10-26T21:15:46.154Z,98814.30
2023-10-26T21:18:15.445Z,98811.79
2023-10-26T21:20:44.455Z,98808.90
2023-10-26T21:23:11.767Z,98805.63
2023-10-26T21:25:38.907Z,98802.20
2023-10-26T21:28:06.089Z,98805.62
2023-10-26T21:30:38.975Z,98805.16
2023-10-26T21:33:06.442Z,98800.04
2023-10-26T21:35:37.406Z,98798.19
2023-10-26T21:38:06.484Z,98798.43
2023-10-26T21:40:37.599Z,98795.97
2023-10-26T21:43:06.001Z,98783.67
2023-10-26T21:45:38.273Z,98776.04
2023-10-26T21:48:08.503Z,98763.04
2023-10-26T21:50:35.749Z,98743.73
2023-10-26T21:53:06.710Z,98742.61
2023-10-26T21:55:40.791Z,98750.84
2023-10-26T21:58:11.573Z,98753.34
2023-10-26T22:00:38.828Z,98756.30
2023-10-26T22:03:08.262Z,98750.75
2023-10-26T22:05:40.289Z,98752.84
2023-10-26T22:08:10.109Z,98761.35
2023-10-26T22:10:38.589Z,98758.58
2023-10-26T22:13:05.777Z,98756.78
2023-10-26T22:15:35.438Z,98757.44
2023-10-26T22:18:03.440Z,98764.45
2023-10-26T22:20:30.625Z,98769.08
2023-10-26T22:22:57.864Z,98771.84
2023-10-26T22:25:28.326Z,98772.92
2023-10-26T22:27:59.946Z,98770.96
2023-10-26T22:30:27.316Z,98771.77
2023-10-26T22:32:59.113Z,98764.73
2023-10-26T22:35:28.691Z,98765.68
2023-10-26T22:37:56.046Z,98763.29
2023-10-26T22:40:25.339Z,98764.54
2023-10-26T22:42:54.924Z,98766.39
2023-10-26T22:45:25.377Z,98766.39
2023-10-26T22:47:54.431Z,98769.04
2023-10-26T22:50:22.596Z,98762.23
2023-10-26T22:52:49.737Z,98764.37
2023-10-26T22:55:17.321Z,98763.38
2023-10-26T22:57:46.534Z,98767.38
2023-10-26T23:00:16.464Z,98759.10
2023-10-26T23:03:42.115Z,98755.42
2023-10-26T23:06:09.891Z,98758.27
2023-10-26T23:08:39.264Z,98762.97
2023-10-26T23:11:06.805Z,98759.45
2023-10-26T23:13:34.150Z,98763.55
2023-10-26T23:16:04.561Z,98765.29
2023-10-26T23:18:32.457Z,98764.41
2023-10-26T23:21:01.790Z,98763.39
2023-10-26T23:23:29.898Z,98764.96
2023-10-26T23:25:58.088Z,98760.30
2023-10-26T23:28:28.155Z,98758.54
2023-10-26T23:30:59.646Z,98757.46
2023-10-26T23:33:27.460Z,98755.65
2023-10-26T23:35:57.510Z,98755.40
2023-10-26T23:38:25.268Z,98753.27
2023-10-26T23:40:52.425Z,98753.17
2023-10-26T23:43:21.070Z,98753.67
2023-10-26T23:45:52.790Z,98759.89
2023-10-26T23:49:17.704Z,98756.85
2023-10-26T23:51:52.716Z,98753.17
2023-10-26T23:54:19.875Z,98757.43
2023-10-26T23:56:47.042Z,98756.73
2023-10-26T23:59:15.708Z,98755.13
